sensor_id;sensor_type;location;lat;lon;timestamp;temperature;humidity
10443;DHT22;5269;51.146;16.986;2023-02-26T00:00:09;0.50;99.90
10443;DHT22;5269;51.146;16.986;2023-02-26T00:02:40;0.50;99.90
10443;DHT22;5269;51.146;16.986;2023-02-26T00:05:08;0.40;99.90
10443;DHT22;5269;51.146;16.986;2023-02-26T00:07:35;0.50;99.90
10443;DHT22;5269;51.146;16.986;2023-02-26T00:10:04;0.60;99.90
10443;DHT22;5269;51.146;16.986;2023-02-26T00:12:32;0.50;99.90
10443;DHT22;5269;51.146;16.986;2023-02-26T00:15:00;0.50;99.90
10443;DHT22;5269;51.146;16.986;2023-02-26T00:17:40;0.50;99.90
10443;DHT22;5269;51.146;16.986;2023-02-26T00:20:09;0.50;99.90
10443;DHT22;5269;51.146;16.986;2023-02-26T00:22:37;0.60;99.90
10443;DHT22;5269;51.146;16.986;2023-02-26T00:25:07;0.50;99.90
10443;DHT22;5269;51.146;16.986;2023-02-26T00:27:34;0.50;99.90
10443;DHT22;5269;51.146;16.986;2023-02-26T00:30:02;0.50;99.90
10443;DHT22;5269;51.146;16.986;2023-02-26T00:32:29;0.50;99.90
10443;DHT22;5269;51.146;16.986;2023-02-26T00:34:57;0.60;99.90
10443;DHT22;5269;51.146;16.986;2023-02-26T00:37:30;0.50;99.90
10443;DHT22;5269;51.146;16.986;2023-02-26T00:40:13;0.50;99.90
10443;DHT22;5269;51.146;16.986;2023-02-26T00:42:42;0.50;99.90
10443;DHT22;5269;51.146;16.986;2023-02-26T00:45:14;0.50;99.90
10443;DHT22;5269;51.146;16.986;2023-02-26T00:47:46;0.50;99.90
10443;DHT22;5269;51.146;16.986;2023-02-26T00:50:17;0.50;99.90
10443;DHT22;5269;51.146;16.986;2023-02-26T00:52:52;0.50;99.90
10443;DHT22;5269;51.146;16.986;2023-02-26T00:55:23;0.50;99.90
10443;DHT22;5269;51.146;16.986;2023-02-26T00:57:50;0.50;99.90
10443;DHT22;5269;51.146;16.986;2023-02-26T01:00:18;0.50;99.90
10443;DHT22;5269;51.146;16.986;2023-02-26T01:02:45;0.50;99.90
10443;DHT22;5269;51.146;16.986;2023-02-26T01:05:14;0.40;99.90
10443;DHT22;5269;51.146;16.986;2023-02-26T01:07:46;0.40;99.90
10443;DHT22;5269;51.146;16.986;2023-02-26T01:10:19;0.40;99.90
10443;DHT22;5269;51.146;16.986;2023-02-26T01:12:48;0.40;99.90
10443;DHT22;5269;51.146;16.986;2023-02-26T01:15:16;0.30;99.90
10443;DHT22;5269;51.146;16.986;2023-02-26T01:17:48;0.30;99.90
10443;DHT22;5269;51.146;16.986;2023-02-26T01:20:18;0.30;99.90
10443;DHT22;5269;51.146;16.986;2023-02-26T01:22:51;0.30;99.90
10443;DHT22;5269;51.146;16.986;2023-02-26T01:25:23;0.20;99.90
10443;DHT22;5269;51.146;16.986;2023-02-26T01:27:53;0.10;99.90
10443;DHT22;5269;51.146;16.986;2023-02-26T01:30:22;0.10;99.90
10443;DHT22;5269;51.146;16.986;2023-02-26T01:32:53;0.10;99.90
10443;DHT22;5269;51.146;16.986;2023-02-26T01:35:31;0.00;99.90
10443;DHT22;5269;51.146;16.986;2023-02-26T01:38:03;0.00;99.90
10443;DHT22;5269;51.146;16.986;2023-02-26T01:43:36;0.00;99.90
10443;DHT22;5269;51.146;16.986;2023-02-26T01:46:10;0.00;99.90
10443;DHT22;5269;51.146;16.986;2023-02-26T01:48:48;0.00;99.90
10443;DHT22;5269;51.146;16.986;2023-02-26T01:51:15;0.00;99.90
10443;DHT22;5269;51.146;16.986;2023-02-26T01:53:42;0.10;99.90
10443;DHT22;5269;51.146;16.986;2023-02-26T01:56:11;0.10;99.90
10443;DHT22;5269;51.146;16.986;2023-02-26T01:58:40;0.20;99.90
10443;DHT22;5269;51.146;16.986;2023-02-26T02:01:07;0.20;99.90
10443;DHT22;5269;51.146;16.986;2023-02-26T02:03:37;0.10;99.90
10443;DHT22;5269;51.146;16.986;2023-02-26T02:06:06;0.10;99.90
10443;DHT22;5269;51.146;16.986;2023-02-26T02:08:34;0.10;99.90
10443;DHT22;5269;51.146;16.986;2023-02-26T02:11:01;0.10;99.90
10443;DHT22;5269;51.146;16.986;2023-02-26T02:13:36;0.10;99.90
10443;DHT22;5269;51.146;16.986;2023-02-26T02:16:18;0.10;99.90
10443;DHT22;5269;51.146;16.986;2023-02-26T02:18:52;0.10;99.90
10443;DHT22;5269;51.146;16.986;2023-02-26T02:24:37;0.10;99.90
10443;DHT22;5269;51.146;16.986;2023-02-26T02:27:17;0.10;99.90
10443;DHT22;5269;51.146;16.986;2023-02-26T02:29:53;0.10;99.90
10443;DHT22;5269;51.146;16.986;2023-02-26T02:32:31;0.10;99.90
10443;DHT22;5269;51.146;16.986;2023-02-26T02:35:05;0.10;99.90
10443;DHT22;5269;51.146;16.986;2023-02-26T02:37:36;0.10;99.90
10443;DHT22;5269;51.146;16.986;2023-02-26T02:40:06;0.20;99.90
10443;DHT22;5269;51.146;16.986;2023-02-26T02:42:40;0.10;99.90
10443;DHT22;5269;51.146;16.986;2023-02-26T02:45:12;0.10;99.90
10443;DHT22;5269;51.146;16.986;2023-02-26T02:47:43;0.20;99.90
10443;DHT22;5269;51.146;16.986;2023-02-26T02:50:18;0.20;99.90
10443;DHT22;5269;51.146;16.986;2023-02-26T02:52:49;0.30;99.90
10443;DHT22;5269;51.146;16.986;2023-02-26T02:55:21;0.30;99.90
10443;DHT22;5269;51.146;16.986;2023-02-26T02:57:54;0.30;99.90
10443;DHT22;5269;51.146;16.986;2023-02-26T03:00:24;0.20;99.90
10443;DHT22;5269;51.146;16.986;2023-02-26T03:02:58;0.30;99.90
10443;DHT22;5269;51.146;16.986;2023-02-26T03:05:26;0.40;99.90
10443;DHT22;5269;51.146;16.986;2023-02-26T03:07:56;0.30;99.90
10443;DHT22;5269;51.146;16.986;2023-02-26T03:10:24;0.30;99.90
10443;DHT22;5269;51.146;16.986;2023-02-26T03:12:51;0.30;99.90
10443;DHT22;5269;51.146;16.986;2023-02-26T03:15:23;0.30;99.90
10443;DHT22;5269;51.146;16.986;2023-02-26T03:17:59;0.30;99.90
10443;DHT22;5269;51.146;16.986;2023-02-26T03:20:34;0.30;99.90
10443;DHT22;5269;51.146;16.986;2023-02-26T03:23:07;0.30;99.90
10443;DHT22;5269;51.146;16.986;2023-02-26T03:25:41;0.30;99.90
10443;DHT22;5269;51.146;16.986;2023-02-26T03:28:21;0.30;99.90
10443;DHT22;5269;51.146;16.986;2023-02-26T03:30:54;0.30;99.90
10443;DHT22;5269;51.146;16.986;2023-02-26T03:33:27;0.30;99.90
10443;DHT22;5269;51.146;16.986;2023-02-26T03:36:00;0.30;99.90
10443;DHT22;5269;51.146;16.986;2023-02-26T03:38:35;0.30;99.90
10443;DHT22;5269;51.146;16.986;2023-02-26T03:41:07;0.30;99.90
10443;DHT22;5269;51.146;16.986;2023-02-26T03:43:37;0.30;99.90
10443;DHT22;5269;51.146;16.986;2023-02-26T03:46:09;0.20;99.90
10443;DHT22;5269;51.146;16.986;2023-02-26T03:48:37;0.30;99.90
10443;DHT22;5269;51.146;16.986;2023-02-26T03:51:07;0.20;99.90
10443;DHT22;5269;51.146;16.986;2023-02-26T03:53:39;0.20;99.90
10443;DHT22;5269;51.146;16.986;2023-02-26T03:56:12;0.10;99.90
10443;DHT22;5269;51.146;16.986;2023-02-26T03:58:41;0.20;99.90
10443;DHT22;5269;51.146;16.986;2023-02-26T04:01:12;0.20;99.90
10443;DHT22;5269;51.146;16.986;2023-02-26T04:03:48;0.20;99.90
10443;DHT22;5269;51.146;16.986;2023-02-26T04:06:16;0.30;99.90
10443;DHT22;5269;51.146;16.986;2023-02-26T04:08:45;0.30;99.90
10443;DHT22;5269;51.146;16.986;2023-02-26T04:11:14;0.20;99.90
10443;DHT22;5269;51.146;16.986;2023-02-26T04:13:43;0.10;99.90
10443;DHT22;5269;51.146;16.986;2023-02-26T04:16:10;0.20;99.90
10443;DHT22;5269;51.146;16.986;2023-02-26T04:18:37;0.20;99.90
10443;DHT22;5269;51.146;16.986;2023-02-26T04:21:05;0.20;99.90
10443;DHT22;5269;51.146;16.986;2023-02-26T04:23:32;0.20;99.90
10443;DHT22;5269;51.146;16.986;2023-02-26T04:25:59;0.10;99.90
10443;DHT22;5269;51.146;16.986;2023-02-26T04:28:26;0.20;99.90
10443;DHT22;5269;51.146;16.986;2023-02-26T04:30:54;0.20;99.90
10443;DHT22;5269;51.146;16.986;2023-02-26T04:33:21;0.10;99.90
10443;DHT22;5269;51.146;16.986;2023-02-26T04:35:48;0.10;99.90
10443;DHT22;5269;51.146;16.986;2023-02-26T04:38:16;0.10;99.90
10443;DHT22;5269;51.146;16.986;2023-02-26T04:40:44;0.10;99.90
10443;DHT22;5269;51.146;16.986;2023-02-26T04:43:11;0.10;99.90
10443;DHT22;5269;51.146;16.986;2023-02-26T04:45:38;0.20;99.90
10443;DHT22;5269;51.146;16.986;2023-02-26T04:48:06;0.20;99.90
10443;DHT22;5269;51.146;16.986;2023-02-26T04:50:33;0.20;99.90
10443;DHT22;5269;51.146;16.986;2023-02-26T04:53:00;0.20;99.90
10443;DHT22;5269;51.146;16.986;2023-02-26T04:55:29;0.20;99.90
10443;DHT22;5269;51.146;16.986;2023-02-26T04:57:55;0.20;99.90
10443;DHT22;5269;51.146;16.986;2023-02-26T05:00:22;0.10;99.90
10443;DHT22;5269;51.146;16.986;2023-02-26T05:02:50;0.10;99.90
10443;DHT22;5269;51.146;16.986;2023-02-26T05:05:17;0.10;99.90
10443;DHT22;5269;51.146;16.986;2023-02-26T05:07:44;0.10;99.90
10443;DHT22;5269;51.146;16.986;2023-02-26T05:10:11;0.10;99.90
10443;DHT22;5269;51.146;16.986;2023-02-26T05:12:39;0.10;99.90
10443;DHT22;5269;51.146;16.986;2023-02-26T05:15:07;0.10;99.90
10443;DHT22;5269;51.146;16.986;2023-02-26T05:17:34;0.10;99.90
10443;DHT22;5269;51.146;16.986;2023-02-26T05:20:02;0.10;99.90
10443;DHT22;5269;51.146;16.986;2023-02-26T05:22:29;0.10;99.90
10443;DHT22;5269;51.146;16.986;2023-02-26T05:24:56;0.10;99.90
10443;DHT22;5269;51.146;16.986;2023-02-26T05:27:23;0.10;99.90
10443;DHT22;5269;51.146;16.986;2023-02-26T05:29:51;0.10;99.90
10443;DHT22;5269;51.146;16.986;2023-02-26T05:32:18;0.10;99.90
10443;DHT22;5269;51.146;16.986;2023-02-26T05:34:44;0.10;99.90
10443;DHT22;5269;51.146;16.986;2023-02-26T05:37:11;0.10;99.90
10443;DHT22;5269;51.146;16.986;2023-02-26T05:39:38;0.10;99.90
10443;DHT22;5269;51.146;16.986;2023-02-26T05:42:06;0.10;99.90
10443;DHT22;5269;51.146;16.986;2023-02-26T05:44:33;0.10;99.90
10443;DHT22;5269;51.146;16.986;2023-02-26T05:47:01;0.10;99.90
10443;DHT22;5269;51.146;16.986;2023-02-26T05:49:28;0.10;99.90
10443;DHT22;5269;51.146;16.986;2023-02-26T05:51:55;0.10;99.90
10443;DHT22;5269;51.146;16.986;2023-02-26T05:54:22;0.10;99.90
10443;DHT22;5269;51.146;16.986;2023-02-26T05:56:49;0.20;99.90
10443;DHT22;5269;51.146;16.986;2023-02-26T05:59:16;0.20;99.90
10443;DHT22;5269;51.146;16.986;2023-02-26T06:01:43;0.20;99.90
10443;DHT22;5269;51.146;16.986;2023-02-26T06:04:11;0.20;99.90
10443;DHT22;5269;51.146;16.986;2023-02-26T06:06:38;0.20;99.90
10443;DHT22;5269;51.146;16.986;2023-02-26T06:09:05;0.20;99.90
10443;DHT22;5269;51.146;16.986;2023-02-26T06:14:01;0.20;99.90
10443;DHT22;5269;51.146;16.986;2023-02-26T06:16:28;0.30;99.90
10443;DHT22;5269;51.146;16.986;2023-02-26T06:18:55;0.20;99.90
10443;DHT22;5269;51.146;16.986;2023-02-26T06:21:23;0.30;99.90
10443;DHT22;5269;51.146;16.986;2023-02-26T06:23:50;0.20;99.90
10443;DHT22;5269;51.146;16.986;2023-02-26T06:29:01;0.30;99.90
10443;DHT22;5269;51.146;16.986;2023-02-26T06:31:27;0.30;99.90
10443;DHT22;5269;51.146;16.986;2023-02-26T06:33:54;0.30;99.90
10443;DHT22;5269;51.146;16.986;2023-02-26T06:36:23;0.30;99.90
10443;DHT22;5269;51.146;16.986;2023-02-26T06:38:50;0.30;99.90
10443;DHT22;5269;51.146;16.986;2023-02-26T06:41:16;0.30;99.90
10443;DHT22;5269;51.146;16.986;2023-02-26T06:43:47;0.30;99.90
10443;DHT22;5269;51.146;16.986;2023-02-26T06:46:14;0.30;99.90
10443;DHT22;5269;51.146;16.986;2023-02-26T06:48:41;0.40;99.90
10443;DHT22;5269;51.146;16.986;2023-02-26T06:51:08;0.40;99.90
10443;DHT22;5269;51.146;16.986;2023-02-26T06:53:36;0.50;99.90
10443;DHT22;5269;51.146;16.986;2023-02-26T06:56:03;0.40;99.90
10443;DHT22;5269;51.146;16.986;2023-02-26T06:58:30;0.50;99.90
10443;DHT22;5269;51.146;16.986;2023-02-26T07:00:57;0.50;99.90
10443;DHT22;5269;51.146;16.986;2023-02-26T07:03:24;0.60;99.90
10443;DHT22;5269;51.146;16.986;2023-02-26T07:05:51;0.50;99.90
10443;DHT22;5269;51.146;16.986;2023-02-26T07:08:18;0.40;99.90
10443;DHT22;5269;51.146;16.986;2023-02-26T07:10:49;0.50;99.90
10443;DHT22;5269;51.146;16.986;2023-02-26T07:13:17;0.60;99.90
10443;DHT22;5269;51.146;16.986;2023-02-26T07:15:44;0.60;99.90
10443;DHT22;5269;51.146;16.986;2023-02-26T07:18:10;0.70;99.90
10443;DHT22;5269;51.146;16.986;2023-02-26T07:20:37;0.60;99.90
10443;DHT22;5269;51.146;16.986;2023-02-26T07:23:04;0.60;99.90
10443;DHT22;5269;51.146;16.986;2023-02-26T07:25:31;0.50;99.90
10443;DHT22;5269;51.146;16.986;2023-02-26T07:27:59;0.60;99.90
10443;DHT22;5269;51.146;16.986;2023-02-26T07:30:26;0.50;99.90
10443;DHT22;5269;51.146;16.986;2023-02-26T07:32:53;0.50;99.90
10443;DHT22;5269;51.146;16.986;2023-02-26T07:35:20;0.50;99.90
10443;DHT22;5269;51.146;16.986;2023-02-26T07:37:47;0.50;99.90
10443;DHT22;5269;51.146;16.986;2023-02-26T07:40:17;0.60;99.90
10443;DHT22;5269;51.146;16.986;2023-02-26T07:42:47;0.60;99.90
10443;DHT22;5269;51.146;16.986;2023-02-26T07:45:15;0.60;99.90
10443;DHT22;5269;51.146;16.986;2023-02-26T07:47:46;0.70;99.90
10443;DHT22;5269;51.146;16.986;2023-02-26T07:50:13;0.80;99.90
10443;DHT22;5269;51.146;16.986;2023-02-26T07:52:40;0.70;99.90
10443;DHT22;5269;51.146;16.986;2023-02-26T07:55:08;0.70;99.90
10443;DHT22;5269;51.146;16.986;2023-02-26T07:57:35;0.60;99.90
10443;DHT22;5269;51.146;16.986;2023-02-26T08:00:04;0.70;99.90
10443;DHT22;5269;51.146;16.986;2023-02-26T08:02:33;0.70;99.90
10443;DHT22;5269;51.146;16.986;2023-02-26T08:04:59;0.70;99.90
10443;DHT22;5269;51.146;16.986;2023-02-26T08:07:26;0.80;99.90
10443;DHT22;5269;51.146;16.986;2023-02-26T08:09:54;0.90;99.90
10443;DHT22;5269;51.146;16.986;2023-02-26T08:12:22;0.80;99.90
10443;DHT22;5269;51.146;16.986;2023-02-26T08:14:48;0.70;99.90
10443;DHT22;5269;51.146;16.986;2023-02-26T08:17:15;0.80;99.90
10443;DHT22;5269;51.146;16.986;2023-02-26T08:19:44;0.80;99.90
10443;DHT22;5269;51.146;16.986;2023-02-26T08:22:18;0.80;99.90
10443;DHT22;5269;51.146;16.986;2023-02-26T08:24:47;0.80;99.90
10443;DHT22;5269;51.146;16.986;2023-02-26T08:27:14;0.80;99.90
10443;DHT22;5269;51.146;16.986;2023-02-26T08:29:41;0.90;99.90
10443;DHT22;5269;51.146;16.986;2023-02-26T08:32:10;0.90;99.90
10443;DHT22;5269;51.146;16.986;2023-02-26T08:34:37;1.00;99.90
10443;DHT22;5269;51.146;16.986;2023-02-26T08:37:05;1.00;99.90
10443;DHT22;5269;51.146;16.986;2023-02-26T08:39:33;0.90;99.90
10443;DHT22;5269;51.146;16.986;2023-02-26T08:42:03;0.90;99.90
10443;DHT22;5269;51.146;16.986;2023-02-26T08:44:30;1.10;99.90
10443;DHT22;5269;51.146;16.986;2023-02-26T08:46:56;1.20;99.90
10443;DHT22;5269;51.146;16.986;2023-02-26T08:49:23;1.20;99.90
10443;DHT22;5269;51.146;16.986;2023-02-26T08:51:50;1.10;99.90
10443;DHT22;5269;51.146;16.986;2023-02-26T08:54:19;1.00;99.90
10443;DHT22;5269;51.146;16.986;2023-02-26T08:56:45;0.90;99.90
10443;DHT22;5269;51.146;16.986;2023-02-26T08:59:12;1.00;99.90
10443;DHT22;5269;51.146;16.986;2023-02-26T09:01:39;1.10;99.90
10443;DHT22;5269;51.146;16.986;2023-02-26T09:04:06;1.20;99.90
10443;DHT22;5269;51.146;16.986;2023-02-26T09:06:33;1.20;99.90
10443;DHT22;5269;51.146;16.986;2023-02-26T09:09:00;1.30;99.90
10443;DHT22;5269;51.146;16.986;2023-02-26T09:11:28;1.30;99.90
10443;DHT22;5269;51.146;16.986;2023-02-26T09:13:57;1.20;99.90
10443;DHT22;5269;51.146;16.986;2023-02-26T09:16:24;1.30;99.90
10443;DHT22;5269;51.146;16.986;2023-02-26T09:18:51;1.40;99.90
10443;DHT22;5269;51.146;16.986;2023-02-26T09:21:18;1.40;99.90
10443;DHT22;5269;51.146;16.986;2023-02-26T09:23:45;1.40;99.90
10443;DHT22;5269;51.146;16.986;2023-02-26T09:26:12;1.40;99.90
10443;DHT22;5269;51.146;16.986;2023-02-26T09:28:40;1.50;99.90
10443;DHT22;5269;51.146;16.986;2023-02-26T09:31:08;1.70;99.90
10443;DHT22;5269;51.146;16.986;2023-02-26T09:33:35;1.80;99.90
10443;DHT22;5269;51.146;16.986;2023-02-26T09:36:02;1.80;99.90
10443;DHT22;5269;51.146;16.986;2023-02-26T09:38:29;1.90;99.90
10443;DHT22;5269;51.146;16.986;2023-02-26T09:40:58;2.00;99.90
10443;DHT22;5269;51.146;16.986;2023-02-26T09:43:55;2.00;99.90
10443;DHT22;5269;51.146;16.986;2023-02-26T09:46:31;2.00;99.90
10443;DHT22;5269;51.146;16.986;2023-02-26T09:49:08;1.90;99.90
10443;DHT22;5269;51.146;16.986;2023-02-26T09:51:37;1.80;99.90
10443;DHT22;5269;51.146;16.986;2023-02-26T09:54:13;1.90;99.90
10443;DHT22;5269;51.146;16.986;2023-02-26T09:56:40;1.80;99.90
10443;DHT22;5269;51.146;16.986;2023-02-26T09:59:10;1.80;99.90
10443;DHT22;5269;51.146;16.986;2023-02-26T10:01:41;1.70;99.90
10443;DHT22;5269;51.146;16.986;2023-02-26T10:04:21;1.70;99.90
10443;DHT22;5269;51.146;16.986;2023-02-26T10:06:57;1.80;99.90
10443;DHT22;5269;51.146;16.986;2023-02-26T10:09:35;1.70;99.90
10443;DHT22;5269;51.146;16.986;2023-02-26T10:12:07;1.80;99.90
10443;DHT22;5269;51.146;16.986;2023-02-26T10:14:40;1.90;99.90
10443;DHT22;5269;51.146;16.986;2023-02-26T10:17:15;2.00;99.90
10443;DHT22;5269;51.146;16.986;2023-02-26T10:19:47;2.00;99.90
10443;DHT22;5269;51.146;16.986;2023-02-26T10:22:22;2.10;99.90
10443;DHT22;5269;51.146;16.986;2023-02-26T10:24:53;2.20;99.90
10443;DHT22;5269;51.146;16.986;2023-02-26T10:27:34;2.10;99.90
10443;DHT22;5269;51.146;16.986;2023-02-26T10:30:09;2.10;99.90
10443;DHT22;5269;51.146;16.986;2023-02-26T10:32:44;2.10;99.90
10443;DHT22;5269;51.146;16.986;2023-02-26T10:35:14;2.10;99.90
10443;DHT22;5269;51.146;16.986;2023-02-26T10:37:46;2.20;99.90
10443;DHT22;5269;51.146;16.986;2023-02-26T10:40:17;2.30;99.90
10443;DHT22;5269;51.146;16.986;2023-02-26T10:42:47;2.30;99.90
10443;DHT22;5269;51.146;16.986;2023-02-26T10:45:33;2.30;99.90
10443;DHT22;5269;51.146;16.986;2023-02-26T10:48:15;2.40;99.90
10443;DHT22;5269;51.146;16.986;2023-02-26T10:50:47;2.50;99.90
10443;DHT22;5269;51.146;16.986;2023-02-26T10:53:15;2.70;99.90
10443;DHT22;5269;51.146;16.986;2023-02-26T10:55:45;2.80;99.90
10443;DHT22;5269;51.146;16.986;2023-02-26T10:58:14;2.90;99.90
10443;DHT22;5269;51.146;16.986;2023-02-26T11:00:46;3.00;99.90
10443;DHT22;5269;51.146;16.986;2023-02-26T11:03:16;3.10;99.90
10443;DHT22;5269;51.146;16.986;2023-02-26T11:05:44;3.30;99.90
10443;DHT22;5269;51.146;16.986;2023-02-26T11:08:15;3.40;99.90
10443;DHT22;5269;51.146;16.986;2023-02-26T11:10:47;3.30;99.00
10443;DHT22;5269;51.146;16.986;2023-02-26T11:13:14;3.10;99.90
10443;DHT22;5269;51.146;16.986;2023-02-26T11:15:46;2.90;99.90
10443;DHT22;5269;51.146;16.986;2023-02-26T11:18:17;2.80;99.90
10443;DHT22;5269;51.146;16.986;2023-02-26T11:20:46;2.60;99.90
10443;DHT22;5269;51.146;16.986;2023-02-26T11:23:16;2.50;99.90
10443;DHT22;5269;51.146;16.986;2023-02-26T11:25:45;2.30;99.90
10443;DHT22;5269;51.146;16.986;2023-02-26T11:28:21;2.30;99.90
10443;DHT22;5269;51.146;16.986;2023-02-26T11:30:50;2.40;99.90
10443;DHT22;5269;51.146;16.986;2023-02-26T11:33:23;2.40;99.90
10443;DHT22;5269;51.146;16.986;2023-02-26T11:35:57;2.40;99.90
10443;DHT22;5269;51.146;16.986;2023-02-26T11:38:26;2.50;99.90
10443;DHT22;5269;51.146;16.986;2023-02-26T11:40:55;2.60;99.90
10443;DHT22;5269;51.146;16.986;2023-02-26T11:43:25;2.70;99.90
10443;DHT22;5269;51.146;16.986;2023-02-26T11:45:56;2.60;99.90
10443;DHT22;5269;51.146;16.986;2023-02-26T11:48:27;2.70;99.90
10443;DHT22;5269;51.146;16.986;2023-02-26T11:51:00;2.70;99.90
10443;DHT22;5269;51.146;16.986;2023-02-26T11:53:31;2.80;99.90
10443;DHT22;5269;51.146;16.986;2023-02-26T11:56:01;3.10;99.90
10443;DHT22;5269;51.146;16.986;2023-02-26T11:58:34;3.40;94.50
10443;DHT22;5269;51.146;16.986;2023-02-26T12:01:06;3.70;96.10
10443;DHT22;5269;51.146;16.986;2023-02-26T12:03:36;3.60;93.30
10443;DHT22;5269;51.146;16.986;2023-02-26T12:06:06;3.30;99.90
10443;DHT22;5269;51.146;16.986;2023-02-26T12:08:35;2.50;99.90
10443;DHT22;5269;51.146;16.986;2023-02-26T12:14:28;1.90;99.90
10443;DHT22;5269;51.146;16.986;2023-02-26T12:17:10;1.90;99.90
10443;DHT22;5269;51.146;16.986;2023-02-26T12:19:43;2.00;99.90
10443;DHT22;5269;51.146;16.986;2023-02-26T12:22:26;2.00;99.90
10443;DHT22;5269;51.146;16.986;2023-02-26T12:25:13;2.30;99.90
10443;DHT22;5269;51.146;16.986;2023-02-26T12:28:05;2.50;99.90
10443;DHT22;5269;51.146;16.986;2023-02-26T12:30:52;2.70;99.90
10443;DHT22;5269;51.146;16.986;2023-02-26T12:33:33;2.60;99.90
10443;DHT22;5269;51.146;16.986;2023-02-26T12:36:12;2.60;99.90
10443;DHT22;5269;51.146;16.986;2023-02-26T12:38:48;2.60;99.90
10443;DHT22;5269;51.146;16.986;2023-02-26T12:41:39;2.50;99.90
10443;DHT22;5269;51.146;16.986;2023-02-26T12:44:18;2.50;99.90
10443;DHT22;5269;51.146;16.986;2023-02-26T12:47:03;2.60;99.90
10443;DHT22;5269;51.146;16.986;2023-02-26T12:49:58;2.50;99.90
10443;DHT22;5269;51.146;16.986;2023-02-26T12:55:30;2.30;99.90
10443;DHT22;5269;51.146;16.986;2023-02-26T12:58:15;2.50;99.90
10443;DHT22;5269;51.146;16.986;2023-02-26T13:00:54;2.60;99.90
10443;DHT22;5269;51.146;16.986;2023-02-26T13:06:47;2.70;99.90
10443;DHT22;5269;51.146;16.986;2023-02-26T13:09:31;2.80;99.90
10443;DHT22;5269;51.146;16.986;2023-02-26T13:12:06;3.00;99.90
10443;DHT22;5269;51.146;16.986;2023-02-26T13:14:44;3.10;99.90
10443;DHT22;5269;51.146;16.986;2023-02-26T13:17:21;3.10;99.90
10443;DHT22;5269;51.146;16.986;2023-02-26T13:19:52;2.80;99.90
10443;DHT22;5269;51.146;16.986;2023-02-26T13:22:25;2.20;99.90
10443;DHT22;5269;51.146;16.986;2023-02-26T13:24:56;1.80;99.90
10443;DHT22;5269;51.146;16.986;2023-02-26T13:27:26;1.60;99.90
10443;DHT22;5269;51.146;16.986;2023-02-26T13:30:09;1.50;99.90
10443;DHT22;5269;51.146;16.986;2023-02-26T13:32:41;1.30;99.90
10443;DHT22;5269;51.146;16.986;2023-02-26T13:35:18;1.30;99.90
10443;DHT22;5269;51.146;16.986;2023-02-26T13:37:49;1.40;99.90
10443;DHT22;5269;51.146;16.986;2023-02-26T13:40:40;1.50;99.90
10443;DHT22;5269;51.146;16.986;2023-02-26T13:43:15;1.60;99.90
10443;DHT22;5269;51.146;16.986;2023-02-26T13:45:51;1.60;99.90
10443;DHT22;5269;51.146;16.986;2023-02-26T13:48:32;1.60;99.90
10443;DHT22;5269;51.146;16.986;2023-02-26T13:51:04;1.50;99.90
10443;DHT22;5269;51.146;16.986;2023-02-26T13:53:45;1.40;99.90
10443;DHT22;5269;51.146;16.986;2023-02-26T13:56:14;1.40;99.90
10443;DHT22;5269;51.146;16.986;2023-02-26T13:58:42;1.40;99.90
10443;DHT22;5269;51.146;16.986;2023-02-26T14:01:14;1.50;99.90
10443;DHT22;5269;51.146;16.986;2023-02-26T14:03:46;1.50;99.90
10443;DHT22;5269;51.146;16.986;2023-02-26T14:06:40;1.70;99.90
10443;DHT22;5269;51.146;16.986;2023-02-26T14:12:32;1.80;99.90
10443;DHT22;5269;51.146;16.986;2023-02-26T14:15:30;2.20;99.90
10443;DHT22;5269;51.146;16.986;2023-02-26T14:18:02;2.40;99.90
10443;DHT22;5269;51.146;16.986;2023-02-26T14:20:31;2.40;99.90
10443;DHT22;5269;51.146;16.986;2023-02-26T14:23:24;2.30;99.90
10443;DHT22;5269;51.146;16.986;2023-02-26T14:26:05;2.10;99.90
10443;DHT22;5269;51.146;16.986;2023-02-26T14:28:44;2.10;99.90
10443;DHT22;5269;51.146;16.986;2023-02-26T14:31:18;2.20;99.90
10443;DHT22;5269;51.146;16.986;2023-02-26T14:33:56;2.30;99.90
10443;DHT22;5269;51.146;16.986;2023-02-26T14:36:31;2.00;99.90
10443;DHT22;5269;51.146;16.986;2023-02-26T14:39:02;1.70;99.90
10443;DHT22;5269;51.146;16.986;2023-02-26T14:41:33;1.60;99.90
10443;DHT22;5269;51.146;16.986;2023-02-26T14:44:08;1.60;99.90
10443;DHT22;5269;51.146;16.986;2023-02-26T14:46:37;1.60;99.90
10443;DHT22;5269;51.146;16.986;2023-02-26T14:49:07;1.60;99.90
10443;DHT22;5269;51.146;16.986;2023-02-26T14:51:48;1.60;99.90
10443;DHT22;5269;51.146;16.986;2023-02-26T14:54:34;1.70;99.90
10443;DHT22;5269;51.146;16.986;2023-02-26T14:57:09;1.60;99.90
10443;DHT22;5269;51.146;16.986;2023-02-26T15:02:57;1.40;99.90
10443;DHT22;5269;51.146;16.986;2023-02-26T15:05:35;1.30;99.90
10443;DHT22;5269;51.146;16.986;2023-02-26T15:08:24;1.30;99.90
10443;DHT22;5269;51.146;16.986;2023-02-26T15:11:16;1.30;99.90
10443;DHT22;5269;51.146;16.986;2023-02-26T15:14:06;1.30;99.90
10443;DHT22;5269;51.146;16.986;2023-02-26T15:16:49;1.40;99.90
10443;DHT22;5269;51.146;16.986;2023-02-26T15:19:34;1.70;99.90
10443;DHT22;5269;51.146;16.986;2023-02-26T15:22:27;1.90;99.90
10443;DHT22;5269;51.146;16.986;2023-02-26T15:24:55;2.10;99.90
10443;DHT22;5269;51.146;16.986;2023-02-26T15:27:22;2.00;99.90
10443;DHT22;5269;51.146;16.986;2023-02-26T15:29:50;1.90;99.90
10443;DHT22;5269;51.146;16.986;2023-02-26T15:32:23;1.80;99.90
10443;DHT22;5269;51.146;16.986;2023-02-26T15:34:56;1.60;99.90
10443;DHT22;5269;51.146;16.986;2023-02-26T15:37:26;1.70;99.90
10443;DHT22;5269;51.146;16.986;2023-02-26T15:39:55;1.60;99.90
10443;DHT22;5269;51.146;16.986;2023-02-26T15:42:28;1.50;99.90
10443;DHT22;5269;51.146;16.986;2023-02-26T15:44:59;1.50;99.90
10443;DHT22;5269;51.146;16.986;2023-02-26T15:47:29;1.40;99.90
10443;DHT22;5269;51.146;16.986;2023-02-26T15:49:57;1.40;99.90
10443;DHT22;5269;51.146;16.986;2023-02-26T15:52:26;1.30;99.90
10443;DHT22;5269;51.146;16.986;2023-02-26T15:54:56;1.30;99.90
10443;DHT22;5269;51.146;16.986;2023-02-26T15:57:26;1.30;99.90
10443;DHT22;5269;51.146;16.986;2023-02-26T16:00:00;1.30;99.90
10443;DHT22;5269;51.146;16.986;2023-02-26T16:02:33;1.20;99.90
10443;DHT22;5269;51.146;16.986;2023-02-26T16:05:01;1.20;99.90
10443;DHT22;5269;51.146;16.986;2023-02-26T16:07:28;1.20;99.90
10443;DHT22;5269;51.146;16.986;2023-02-26T16:10:04;1.10;99.90
10443;DHT22;5269;51.146;16.986;2023-02-26T16:12:35;1.10;99.90
10443;DHT22;5269;51.146;16.986;2023-02-26T16:15:06;1.10;99.90
10443;DHT22;5269;51.146;16.986;2023-02-26T16:17:41;1.00;99.90
10443;DHT22;5269;51.146;16.986;2023-02-26T16:20:13;0.90;99.90
10443;DHT22;5269;51.146;16.986;2023-02-26T16:22:44;0.90;99.90
10443;DHT22;5269;51.146;16.986;2023-02-26T16:25:18;0.90;99.90
10443;DHT22;5269;51.146;16.986;2023-02-26T16:27:49;0.90;99.90
10443;DHT22;5269;51.146;16.986;2023-02-26T16:30:32;1.00;99.90
10443;DHT22;5269;51.146;16.986;2023-02-26T16:33:02;0.90;99.90
10443;DHT22;5269;51.146;16.986;2023-02-26T16:35:32;0.90;99.90
10443;DHT22;5269;51.146;16.986;2023-02-26T16:38:09;0.90;99.90